Jacksonville, FL (32222)

12:02 AM EST on February 14, 2016 (GMT -0500)
Miss BEE Haven Apiary, Jax, Heights | | Change Station
CLOSE
Current Station
Personal Weather Station
Location: Jacksonville, FL
Elevation: 75 ft
Nearby Weather Stations

Elev 75 ft 30.26 °N, 81.81 °W | Updated 8 seconds ago

Clear
Clear
35.2 °F
Feels Like 35 °F
N
0.0
Wind Variable Wind from NE
Gusts 0.0 mph

Today
High -- | Low -- °F
--% Chance of Precip.
Yesterday
High -- | Low -- °F
Precip. -- in
Pressure 30.34 in
Visibility 10.0 miles
Clouds Clear
Windchill 35 °F
Dew Point 28 °F
Humidity 74%
Rainfall 0.00 in
Snow Depth Not available.
7:08 AM 6:14 PM
Waxing Crescent, 37% visible
METAR KVQQ 140450Z 00000KT 10SM CLR 00/00 A3034
Pressure 30.34 in
Visibility 10.0 miles
Clouds Clear
Windchill 35 °F
Dew Point 28 °F
Humidity 74%
Rainfall 0.00 in
Snow Depth Not available.
7:08 AM 6:14 PM
Waxing Crescent, 37% visible
METAR KVQQ 140450Z 00000KT 10SM CLR 00/00 A3034

10-Day Weather Forecast

Almanac

Astronomy

Feb. 14, 2016 Rise Set
Actual Time
Civil Twilight
Nautical Twilight
Astronomical Twilight
Moon
Length of Visible Light
Length of Day
Tomorrow will be .
, % of the Moon is Illuminated

Today's Extremes

State Highs State Lows

Community

WunderPhotos

Upload Photos

1,892,748 photos uploaded!

WunderBlog® & News

Nearby

Air Quality

  Air Quality AQ Index Pollutant
Not available.

Snow Depth

Station Depth Elevation

Earthquake Activity

City Distance Mag. Time & Date
Minimum magnitude displayed is 2.5.

Coastal Water Temperatures

Place Temperature

Stations

Nearby Weather Stations

Station Location Temp. Windchill Dew Point Humidity Wind Precip. Elev Updated Type
                   

Watches & Warnings

There are currently no watches in effect.